Airfield :
LOGIN :

Register | Disclaimer

   EN    FR    IT 

 










Legend :    VFR   Marginal VFR   IFR   Intensive IFR   Very Intensive IFR
Visi :
Ceiling :
>= 8 km
>= 3000ft
5 to 8 km
1000 to 3000 ft
1500m to 5 km
500 to 1000 ft
800 to 1500m
200 to 500 ft
< 800m
< 200 ft
Symbols :   Thunderstorms  Fog  Heavy snow  Heavy precipitations  Wind > 20 kt
SIGMETs :     Misc.  Thunderstorms  Icing  Turbulence  Mountain Waves  Volcanic Ashes






- Airport Elevation : 580 ft


LFOA - Avord

CURRENT METAR :
  • 252200Z AUTO VRB02KT CAVOK M02/M02 Q1019

EXPIRED METARs :
  • 252130Z AUTO 29004KT CAVOK M02/M02 Q1019
  • 252100Z AUTO 28005KT CAVOK M02/M03 Q1018
  • 252030Z AUTO 30005KT CAVOK M01/M02 Q1018
  • 252000Z AUTO 30003KT CAVOK M01/M03 Q1017
  • 251930Z AUTO 32003KT CAVOK M01/M02 Q1016

TAF TAF LFOA
Valid from the 25 at 15:00 until the 26 at 15:00 UTC


251400Z 2515/2615 33010KT 9999 OVC026 TX04/2515Z TNM03/2605Z
BECMG 2520/2522 VRB02KT
TEMPO 2522/2608 3000 BR BKN004
PROB30
TEMPO 2604/2606 0600 FZFG
BECMG 2609/2611 18010KT
BECMG 2613/2615 12010KT



MET'MAP, your aeronautical weather chart ! - Copyright ORBIFLY December 2007 - Disclaimer

ORBIFLY MET'MAP TEAM :

Programming & Development : Alexandra Zaïnal
Concept & original design : Baudouin d'Aumeries
Assistance for programming : Marc-Olivier Méhu
Technical & hardware support : Manuel Goepfert

Contact : metmap@orbifly.com




SOURCES & CREDITS :

   NOAA